sensor_id;sensor_type;location;lat;lon;timestamp;pressure;altitude;pressure_sealevel;temperature;humidity
67840;BME280;54636;51.684;5.142;2023-08-30T00:01:34;100903.31;;;11.20;100.00
67840;BME280;54636;51.684;5.142;2023-08-30T00:03:59;100891.56;;;11.03;100.00
67840;BME280;54636;51.684;5.142;2023-08-30T00:06:24;100896.06;;;11.11;100.00
67840;BME280;54636;51.684;5.142;2023-08-30T00:08:50;100882.16;;;10.98;100.00
67840;BME280;54636;51.684;5.142;2023-08-30T00:11:15;100890.09;;;11.02;100.00
67840;BME280;54636;51.684;5.142;2023-08-30T00:13:41;100889.06;;;10.99;100.00
67840;BME280;54636;51.684;5.142;2023-08-30T00:16:07;100887.78;;;10.95;100.00
67840;BME280;54636;51.684;5.142;2023-08-30T00:18:32;100883.31;;;10.92;100.00
67840;BME280;54636;51.684;5.142;2023-08-30T00:20:58;100879.59;;;10.89;100.00
67840;BME280;54636;51.684;5.142;2023-08-30T00:23:24;100880.28;;;10.84;100.00
67840;BME280;54636;51.684;5.142;2023-08-30T00:25:49;100875.06;;;10.80;100.00
67840;BME280;54636;51.684;5.142;2023-08-30T00:28:15;100880.72;;;10.77;100.00
67840;BME280;54636;51.684;5.142;2023-08-30T00:30:40;100886.63;;;10.75;100.00
67840;BME280;54636;51.684;5.142;2023-08-30T00:33:05;100886.34;;;10.73;100.00
67840;BME280;54636;51.684;5.142;2023-08-30T00:35:31;100864.28;;;10.66;100.00
67840;BME280;54636;51.684;5.142;2023-08-30T00:37:56;100874.69;;;10.67;100.00
67840;BME280;54636;51.684;5.142;2023-08-30T00:40:25;100873.88;;;10.61;100.00
67840;BME280;54636;51.684;5.142;2023-08-30T00:42:51;100868.44;;;10.61;100.00
67840;BME280;54636;51.684;5.142;2023-08-30T00:45:16;100827.50;;;10.39;100.00
67840;BME280;54636;51.684;5.142;2023-08-30T00:47:42;100836.88;;;10.38;100.00
67840;BME280;54636;51.684;5.142;2023-08-30T00:50:08;100863.75;;;10.62;100.00
67840;BME280;54636;51.684;5.142;2023-08-30T00:52:34;100841.66;;;10.48;100.00
67840;BME280;54636;51.684;5.142;2023-08-30T00:55:00;100857.09;;;10.63;100.00
67840;BME280;54636;51.684;5.142;2023-08-30T00:57:26;100853.91;;;10.64;100.00
67840;BME280;54636;51.684;5.142;2023-08-30T00:59:53;100846.50;;;10.65;100.00
67840;BME280;54636;51.684;5.142;2023-08-30T01:02:19;100839.63;;;10.69;100.00
67840;BME280;54636;51.684;5.142;2023-08-30T01:04:45;100847.25;;;10.65;100.00
67840;BME280;54636;51.684;5.142;2023-08-30T01:07:11;100841.59;;;10.69;100.00
67840;BME280;54636;51.684;5.142;2023-08-30T01:09:36;100844.06;;;10.67;100.00
67840;BME280;54636;51.684;5.142;2023-08-30T01:12:12;100844.28;;;10.63;100.00
67840;BME280;54636;51.684;5.142;2023-08-30T01:17:16;100841.34;;;10.67;100.00
67840;BME280;54636;51.684;5.142;2023-08-30T01:19:50;100837.13;;;10.66;100.00
67840;BME280;54636;51.684;5.142;2023-08-30T01:25:25;100843.25;;;10.61;100.00
67840;BME280;54636;51.684;5.142;2023-08-30T01:27:54;100840.00;;;10.56;100.00
67840;BME280;54636;51.684;5.142;2023-08-30T01:30:20;100843.94;;;10.55;100.00
67840;BME280;54636;51.684;5.142;2023-08-30T01:32:46;100835.47;;;10.48;100.00
67840;BME280;54636;51.684;5.142;2023-08-30T01:35:12;100836.50;;;10.50;100.00
67840;BME280;54636;51.684;5.142;2023-08-30T01:37:44;100837.03;;;10.54;100.00
67840;BME280;54636;51.684;5.142;2023-08-30T01:40:10;100844.31;;;10.69;100.00
67840;BME280;54636;51.684;5.142;2023-08-30T01:42:36;100838.19;;;10.74;100.00
67840;BME280;54636;51.684;5.142;2023-08-30T01:45:03;100835.06;;;10.81;100.00
67840;BME280;54636;51.684;5.142;2023-08-30T01:47:29;100827.59;;;10.76;100.00
67840;BME280;54636;51.684;5.142;2023-08-30T01:49:56;100830.16;;;10.85;100.00
67840;BME280;54636;51.684;5.142;2023-08-30T01:52:23;100832.91;;;10.91;100.00
67840;BME280;54636;51.684;5.142;2023-08-30T01:54:50;100820.78;;;10.86;100.00
67840;BME280;54636;51.684;5.142;2023-08-30T01:57:16;100812.78;;;10.77;100.00
67840;BME280;54636;51.684;5.142;2023-08-30T01:59:41;100824.13;;;10.75;100.00
67840;BME280;54636;51.684;5.142;2023-08-30T02:02:07;100820.34;;;10.67;100.00
67840;BME280;54636;51.684;5.142;2023-08-30T02:04:32;100825.47;;;10.60;100.00
67840;BME280;54636;51.684;5.142;2023-08-30T02:07:02;100823.94;;;10.53;100.00
67840;BME280;54636;51.684;5.142;2023-08-30T02:09:32;100821.16;;;10.47;100.00
67840;BME280;54636;51.684;5.142;2023-08-30T02:12:04;100809.19;;;10.34;100.00
67840;BME280;54636;51.684;5.142;2023-08-30T02:14:32;100822.75;;;10.34;100.00
67840;BME280;54636;51.684;5.142;2023-08-30T02:16:58;100819.03;;;10.31;100.00
67840;BME280;54636;51.684;5.142;2023-08-30T02:19:23;100823.38;;;10.23;100.00
67840;BME280;54636;51.684;5.142;2023-08-30T02:21:49;100819.09;;;10.16;100.00
67840;BME280;54636;51.684;5.142;2023-08-30T02:24:15;100786.47;;;9.90;100.00
67840;BME280;54636;51.684;5.142;2023-08-30T02:26:40;100790.00;;;9.97;100.00
67840;BME280;54636;51.684;5.142;2023-08-30T02:29:06;100818.00;;;10.08;100.00
67840;BME280;54636;51.684;5.142;2023-08-30T02:31:31;100804.84;;;10.01;100.00
67840;BME280;54636;51.684;5.142;2023-08-30T02:33:57;100814.22;;;10.00;100.00
67840;BME280;54636;51.684;5.142;2023-08-30T02:36:22;100817.41;;;9.99;100.00
67840;BME280;54636;51.684;5.142;2023-08-30T02:38:47;100806.97;;;9.91;100.00
67840;BME280;54636;51.684;5.142;2023-08-30T02:41:13;100778.28;;;9.65;100.00
67840;BME280;54636;51.684;5.142;2023-08-30T02:43:38;100802.63;;;9.79;100.00
67840;BME280;54636;51.684;5.142;2023-08-30T02:46:03;100795.94;;;9.75;100.00
67840;BME280;54636;51.684;5.142;2023-08-30T02:48:30;100807.28;;;9.79;100.00
67840;BME280;54636;51.684;5.142;2023-08-30T02:50:56;100804.78;;;9.75;100.00
67840;BME280;54636;51.684;5.142;2023-08-30T02:53:21;100795.84;;;9.69;100.00
67840;BME280;54636;51.684;5.142;2023-08-30T02:55:47;100801.28;;;9.69;100.00
67840;BME280;54636;51.684;5.142;2023-08-30T02:58:13;100791.50;;;9.57;100.00
67840;BME280;54636;51.684;5.142;2023-08-30T03:00:38;100789.53;;;9.57;100.00
67840;BME280;54636;51.684;5.142;2023-08-30T03:03:04;100789.53;;;9.57;100.00
67840;BME280;54636;51.684;5.142;2023-08-30T03:05:30;100768.91;;;9.45;100.00
67840;BME280;54636;51.684;5.142;2023-08-30T03:07:55;100764.31;;;9.51;100.00
67840;BME280;54636;51.684;5.142;2023-08-30T03:10:20;100767.56;;;9.55;100.00
67840;BME280;54636;51.684;5.142;2023-08-30T03:12:46;100773.06;;;9.61;100.00
67840;BME280;54636;51.684;5.142;2023-08-30T03:15:11;100766.97;;;9.66;100.00
67840;BME280;54636;51.684;5.142;2023-08-30T03:17:36;100759.03;;;9.63;100.00
67840;BME280;54636;51.684;5.142;2023-08-30T03:20:02;100746.97;;;9.64;100.00
67840;BME280;54636;51.684;5.142;2023-08-30T03:22:30;100744.88;;;9.73;100.00
67840;BME280;54636;51.684;5.142;2023-08-30T03:24:56;100748.63;;;9.81;100.00
67840;BME280;54636;51.684;5.142;2023-08-30T03:27:21;100747.28;;;9.91;100.00
67840;BME280;54636;51.684;5.142;2023-08-30T03:29:46;100732.22;;;9.90;100.00
67840;BME280;54636;51.684;5.142;2023-08-30T03:32:15;100723.59;;;9.92;100.00
67840;BME280;54636;51.684;5.142;2023-08-30T03:34:44;100731.06;;;9.97;100.00
67840;BME280;54636;51.684;5.142;2023-08-30T03:37:15;100727.81;;;9.93;100.00
67840;BME280;54636;51.684;5.142;2023-08-30T03:39:41;100725.34;;;9.95;100.00
67840;BME280;54636;51.684;5.142;2023-08-30T03:42:07;100708.53;;;9.91;100.00
67840;BME280;54636;51.684;5.142;2023-08-30T03:44:33;100702.63;;;9.93;100.00
67840;BME280;54636;51.684;5.142;2023-08-30T03:46:58;100703.59;;;9.89;100.00
67840;BME280;54636;51.684;5.142;2023-08-30T03:49:24;100713.22;;;9.90;100.00
67840;BME280;54636;51.684;5.142;2023-08-30T03:51:49;100703.31;;;9.87;100.00
67840;BME280;54636;51.684;5.142;2023-08-30T03:54:14;100699.81;;;9.81;100.00
67840;BME280;54636;51.684;5.142;2023-08-30T03:56:45;100685.41;;;9.70;100.00
67840;BME280;54636;51.684;5.142;2023-08-30T03:59:11;100698.78;;;9.79;100.00
67840;BME280;54636;51.684;5.142;2023-08-30T04:01:37;100698.53;;;9.77;100.00
67840;BME280;54636;51.684;5.142;2023-08-30T04:04:02;100674.50;;;9.64;100.00
67840;BME280;54636;51.684;5.142;2023-08-30T04:06:27;100682.69;;;9.70;100.00
67840;BME280;54636;51.684;5.142;2023-08-30T04:08:53;100691.56;;;9.70;100.00
67840;BME280;54636;51.684;5.142;2023-08-30T04:11:18;100691.31;;;9.68;100.00
67840;BME280;54636;51.684;5.142;2023-08-30T04:13:44;100679.66;;;9.62;100.00
67840;BME280;54636;51.684;5.142;2023-08-30T04:16:10;100675.66;;;9.57;100.00
67840;BME280;54636;51.684;5.142;2023-08-30T04:18:36;100669.06;;;9.64;100.00
67840;BME280;54636;51.684;5.142;2023-08-30T04:21:01;100653.56;;;9.65;100.00
67840;BME280;54636;51.684;5.142;2023-08-30T04:23:28;100670.94;;;9.78;100.00
67840;BME280;54636;51.684;5.142;2023-08-30T04:25:54;100651.84;;;9.67;100.00
67840;BME280;54636;51.684;5.142;2023-08-30T04:28:19;100658.84;;;9.79;100.00
67840;BME280;54636;51.684;5.142;2023-08-30T04:30:45;100672.31;;;9.94;100.00
67840;BME280;54636;51.684;5.142;2023-08-30T04:33:10;100665.25;;;10.02;100.00
67840;BME280;54636;51.684;5.142;2023-08-30T04:35:35;100672.00;;;10.12;100.00
67840;BME280;54636;51.684;5.142;2023-08-30T04:38:02;100665.88;;;10.17;100.00
67840;BME280;54636;51.684;5.142;2023-08-30T04:40:28;100655.31;;;10.19;100.00
67840;BME280;54636;51.684;5.142;2023-08-30T04:42:55;100658.13;;;10.31;100.00
67840;BME280;54636;51.684;5.142;2023-08-30T04:45:21;100659.59;;;10.32;100.00
67840;BME280;54636;51.684;5.142;2023-08-30T04:47:46;100662.09;;;10.35;100.00
67840;BME280;54636;51.684;5.142;2023-08-30T04:50:13;100655.94;;;10.35;100.00
67840;BME280;54636;51.684;5.142;2023-08-30T04:52:38;100634.59;;;10.22;100.00
67840;BME280;54636;51.684;5.142;2023-08-30T04:55:04;100649.22;;;10.30;100.00
67840;BME280;54636;51.684;5.142;2023-08-30T04:57:29;100660.13;;;10.36;100.00
67840;BME280;54636;51.684;5.142;2023-08-30T04:59:55;100641.88;;;10.36;100.00
67840;BME280;54636;51.684;5.142;2023-08-30T05:02:22;100653.75;;;10.44;100.00
67840;BME280;54636;51.684;5.142;2023-08-30T05:04:47;100658.00;;;10.51;100.00
67840;BME280;54636;51.684;5.142;2023-08-30T05:07:14;100643.94;;;10.52;100.00
67840;BME280;54636;51.684;5.142;2023-08-30T05:09:40;100652.91;;;10.64;100.00
67840;BME280;54636;51.684;5.142;2023-08-30T05:12:06;100652.94;;;10.70;100.00
67840;BME280;54636;51.684;5.142;2023-08-30T05:14:31;100635.16;;;10.69;100.00
67840;BME280;54636;51.684;5.142;2023-08-30T05:16:57;100636.94;;;10.77;100.00
67840;BME280;54636;51.684;5.142;2023-08-30T05:19:22;100634.78;;;10.87;100.00
67840;BME280;54636;51.684;5.142;2023-08-30T05:21:48;100648.94;;;11.02;100.00
67840;BME280;54636;51.684;5.142;2023-08-30T05:24:16;100636.84;;;11.09;100.00
67840;BME280;54636;51.684;5.142;2023-08-30T05:26:42;100639.81;;;11.11;100.00
67840;BME280;54636;51.684;5.142;2023-08-30T05:29:07;100648.00;;;11.22;100.00
67840;BME280;54636;51.684;5.142;2023-08-30T05:31:33;100644.09;;;11.29;100.00
67840;BME280;54636;51.684;5.142;2023-08-30T05:33:58;100634.22;;;11.31;100.00
67840;BME280;54636;51.684;5.142;2023-08-30T05:36:23;100640.41;;;11.37;100.00
67840;BME280;54636;51.684;5.142;2023-08-30T05:38:49;100640.19;;;11.46;100.00
67840;BME280;54636;51.684;5.142;2023-08-30T05:41:14;100628.09;;;11.47;100.00
67840;BME280;54636;51.684;5.142;2023-08-30T05:43:41;100626.88;;;11.54;100.00
67840;BME280;54636;51.684;5.142;2023-08-30T05:46:06;100631.56;;;11.59;100.00
67840;BME280;54636;51.684;5.142;2023-08-30T05:48:37;100641.72;;;11.59;100.00
67840;BME280;54636;51.684;5.142;2023-08-30T05:51:02;100618.94;;;11.56;100.00
67840;BME280;54636;51.684;5.142;2023-08-30T05:53:29;100639.25;;;11.66;100.00
67840;BME280;54636;51.684;5.142;2023-08-30T05:55:54;100617.22;;;11.53;100.00
67840;BME280;54636;51.684;5.142;2023-08-30T05:58:20;100637.25;;;11.72;100.00
67840;BME280;54636;51.684;5.142;2023-08-30T06:00:46;100635.03;;;11.71;100.00
67840;BME280;54636;51.684;5.142;2023-08-30T06:03:11;100642.00;;;11.77;100.00
67840;BME280;54636;51.684;5.142;2023-08-30T06:05:37;100647.94;;;11.81;100.00
67840;BME280;54636;51.684;5.142;2023-08-30T06:08:02;100621.69;;;11.73;100.00
67840;BME280;54636;51.684;5.142;2023-08-30T06:10:28;100634.84;;;11.85;100.00
67840;BME280;54636;51.684;5.142;2023-08-30T06:12:53;100637.56;;;11.91;100.00
67840;BME280;54636;51.684;5.142;2023-08-30T06:15:19;100622.72;;;11.86;100.00
67840;BME280;54636;51.684;5.142;2023-08-30T06:17:44;100619.00;;;11.90;100.00
67840;BME280;54636;51.684;5.142;2023-08-30T06:20:11;100624.47;;;12.01;100.00
67840;BME280;54636;51.684;5.142;2023-08-30T06:22:37;100631.16;;;12.05;100.00
67840;BME280;54636;51.684;5.142;2023-08-30T06:25:03;100628.91;;;11.98;100.00
67840;BME280;54636;51.684;5.142;2023-08-30T06:27:29;100627.19;;;12.01;100.00
67840;BME280;54636;51.684;5.142;2023-08-30T06:29:55;100634.13;;;12.07;100.00
67840;BME280;54636;51.684;5.142;2023-08-30T06:32:20;100624.22;;;12.04;100.00
67840;BME280;54636;51.684;5.142;2023-08-30T06:34:46;100627.19;;;12.01;100.00
67840;BME280;54636;51.684;5.142;2023-08-30T06:37:11;100632.63;;;12.06;100.00
67840;BME280;54636;51.684;5.142;2023-08-30T06:39:36;100638.56;;;12.10;100.00
67840;BME280;54636;51.684;5.142;2023-08-30T06:42:03;100615.56;;;11.95;100.00
67840;BME280;54636;51.684;5.142;2023-08-30T06:44:29;100596.75;;;11.91;100.00
67840;BME280;54636;51.684;5.142;2023-08-30T06:46:57;100627.44;;;12.14;100.00
67840;BME280;54636;51.684;5.142;2023-08-30T06:49:23;100620.50;;;12.07;100.00
67840;BME280;54636;51.684;5.142;2023-08-30T06:51:50;100604.19;;;12.07;100.00
67840;BME280;54636;51.684;5.142;2023-08-30T06:54:15;100591.06;;;12.00;100.00
67840;BME280;54636;51.684;5.142;2023-08-30T06:56:57;100597.25;;;12.12;100.00
67840;BME280;54636;51.684;5.142;2023-08-30T06:59:26;100599.97;;;12.17;100.00
67840;BME280;54636;51.684;5.142;2023-08-30T07:01:52;100598.97;;;12.15;100.00
67840;BME280;54636;51.684;5.142;2023-08-30T07:04:17;100588.34;;;12.11;100.00
67840;BME280;54636;51.684;5.142;2023-08-30T07:06:43;100592.28;;;12.22;100.00
67840;BME280;54636;51.684;5.142;2023-08-30T07:09:09;100578.19;;;12.23;100.00
67840;BME280;54636;51.684;5.142;2023-08-30T07:11:34;100562.59;;;12.18;100.00
67840;BME280;54636;51.684;5.142;2023-08-30T07:14:00;100552.69;;;12.04;100.00
67840;BME280;54636;51.684;5.142;2023-08-30T07:16:25;100558.63;;;12.19;100.00
67840;BME280;54636;51.684;5.142;2023-08-30T07:18:51;100550.22;;;12.17;100.00
67840;BME280;54636;51.684;5.142;2023-08-30T07:21:16;100562.09;;;12.25;100.00
67840;BME280;54636;51.684;5.142;2023-08-30T07:23:42;100558.88;;;12.21;100.00
67840;BME280;54636;51.684;5.142;2023-08-30T07:26:07;100551.19;;;12.25;100.00
67840;BME280;54636;51.684;5.142;2023-08-30T07:28:32;100556.16;;;12.21;100.00
67840;BME280;54636;51.684;5.142;2023-08-30T07:31:04;100509.88;;;12.04;100.00
67840;BME280;54636;51.684;5.142;2023-08-30T07:33:30;100544.25;;;12.30;100.00
67840;BME280;54636;51.684;5.142;2023-08-30T07:35:56;100523.97;;;12.25;100.00
67840;BME280;54636;51.684;5.142;2023-08-30T07:38:21;100531.34;;;12.36;100.00
67840;BME280;54636;51.684;5.142;2023-08-30T07:40:47;100535.78;;;12.39;100.00
67840;BME280;54636;51.684;5.142;2023-08-30T07:43:12;100534.78;;;12.42;100.00
67840;BME280;54636;51.684;5.142;2023-08-30T07:45:38;100519.72;;;12.35;100.00
67840;BME280;54636;51.684;5.142;2023-08-30T07:48:03;100533.78;;;12.50;100.00
67840;BME280;54636;51.684;5.142;2023-08-30T07:50:29;100524.59;;;12.59;100.00
67840;BME280;54636;51.684;5.142;2023-08-30T07:52:54;100521.59;;;12.68;100.00
67840;BME280;54636;51.684;5.142;2023-08-30T07:55:20;100534.44;;;12.73;100.00
67840;BME280;54636;51.684;5.142;2023-08-30T07:57:45;100525.28;;;12.76;100.00
67840;BME280;54636;51.684;5.142;2023-08-30T08:00:11;100525.47;;;12.90;100.00
67840;BME280;54636;51.684;5.142;2023-08-30T08:02:37;100526.19;;;12.96;100.00
67840;BME280;54636;51.684;5.142;2023-08-30T08:05:02;100523.41;;;13.01;100.00
67840;BME280;54636;51.684;5.142;2023-08-30T08:07:28;100515.50;;;12.98;100.00
67840;BME280;54636;51.684;5.142;2023-08-30T08:09:56;100515.69;;;13.05;100.00
67840;BME280;54636;51.684;5.142;2023-08-30T08:12:22;100529.03;;;13.14;100.00
67840;BME280;54636;51.684;5.142;2023-08-30T08:14:47;100530.50;;;13.21;100.00
67840;BME280;54636;51.684;5.142;2023-08-30T08:17:13;100519.56;;;13.27;100.00
67840;BME280;54636;51.684;5.142;2023-08-30T08:19:38;100526.50;;;13.28;100.00
67840;BME280;54636;51.684;5.142;2023-08-30T08:22:05;100513.88;;;13.25;100.00
67840;BME280;54636;51.684;5.142;2023-08-30T08:24:31;100531.88;;;13.39;100.00
67840;BME280;54636;51.684;5.142;2023-08-30T08:26:56;100516.53;;;13.36;100.00
67840;BME280;54636;51.684;5.142;2023-08-30T08:29:22;100523.88;;;13.52;100.00
67840;BME280;54636;51.684;5.142;2023-08-30T08:31:47;100531.53;;;13.54;100.00
67840;BME280;54636;51.684;5.142;2023-08-30T08:34:13;100530.03;;;13.58;100.00
67840;BME280;54636;51.684;5.142;2023-08-30T08:36:40;100532.72;;;13.64;100.00
67840;BME280;54636;51.684;5.142;2023-08-30T08:39:06;100527.69;;;13.68;100.00
67840;BME280;54636;51.684;5.142;2023-08-30T08:41:40;100522.38;;;13.81;100.00
67840;BME280;54636;51.684;5.142;2023-08-30T08:44:09;100521.50;;;13.97;100.00
67840;BME280;54636;51.684;5.142;2023-08-30T08:46:37;100518.88;;;14.10;100.00
67840;BME280;54636;51.684;5.142;2023-08-30T08:49:14;100519.97;;;14.26;100.00
67840;BME280;54636;51.684;5.142;2023-08-30T08:51:41;100515.16;;;14.32;100.00
67840;BME280;54636;51.684;5.142;2023-08-30T08:54:08;100525.66;;;14.53;100.00
67840;BME280;54636;51.684;5.142;2023-08-30T08:56:35;100532.03;;;14.79;100.00
67840;BME280;54636;51.684;5.142;2023-08-30T08:59:01;100523.91;;;15.11;100.00
67840;BME280;54636;51.684;5.142;2023-08-30T09:01:26;100516.97;;;15.42;100.00
67840;BME280;54636;51.684;5.142;2023-08-30T09:03:52;100531.53;;;15.82;100.00
67840;BME280;54636;51.684;5.142;2023-08-30T09:06:18;100521.88;;;16.08;100.00
67840;BME280;54636;51.684;5.142;2023-08-30T09:08:44;100512.50;;;16.30;100.00
67840;BME280;54636;51.684;5.142;2023-08-30T09:11:11;100540.00;;;16.64;100.00
67840;BME280;54636;51.684;5.142;2023-08-30T09:13:36;100532.94;;;16.82;100.00
67840;BME280;54636;51.684;5.142;2023-08-30T09:16:02;100535.72;;;17.02;100.00
67840;BME280;54636;51.684;5.142;2023-08-30T09:18:30;100525.91;;;17.07;100.00
67840;BME280;54636;51.684;5.142;2023-08-30T09:21:09;100523.94;;;16.94;100.00
67840;BME280;54636;51.684;5.142;2023-08-30T09:23:34;100515.13;;;17.09;100.00
67840;BME280;54636;51.684;5.142;2023-08-30T09:26:01;100526.28;;;17.24;100.00
67840;BME280;54636;51.684;5.142;2023-08-30T09:28:27;100518.72;;;17.38;100.00
67840;BME280;54636;51.684;5.142;2023-08-30T09:30:53;100520.59;;;17.43;100.00
67840;BME280;54636;51.684;5.142;2023-08-30T09:33:31;100508.84;;;17.63;100.00
67840;BME280;54636;51.684;5.142;2023-08-30T09:35:57;100518.19;;;17.81;100.00
67840;BME280;54636;51.684;5.142;2023-08-30T09:38:24;100511.69;;;17.71;100.00
67840;BME280;54636;51.684;5.142;2023-08-30T09:40:50;100522.53;;;17.76;100.00
67840;BME280;54636;51.684;5.142;2023-08-30T09:43:19;100502.38;;;17.53;100.00
67840;BME280;54636;51.684;5.142;2023-08-30T09:45:47;100517.09;;;17.63;100.00
67840;BME280;54636;51.684;5.142;2023-08-30T09:48:13;100508.06;;;17.76;100.00
67840;BME280;54636;51.684;5.142;2023-08-30T09:50:39;100516.72;;;17.80;100.00
67840;BME280;54636;51.684;5.142;2023-08-30T09:53:08;100521.22;;;17.70;100.00
67840;BME280;54636;51.684;5.142;2023-08-30T09:55:35;100508.53;;;17.46;100.00
67840;BME280;54636;51.684;5.142;2023-08-30T09:58:02;100516.13;;;17.53;100.00
67840;BME280;54636;51.684;5.142;2023-08-30T10:00:30;100507.38;;;17.62;100.00
67840;BME280;54636;51.684;5.142;2023-08-30T10:02:58;100504.03;;;17.56;100.00
67840;BME280;54636;51.684;5.142;2023-08-30T10:05:24;100509.75;;;17.37;100.00
67840;BME280;54636;51.684;5.142;2023-08-30T10:07:52;100509.13;;;17.31;100.00
67840;BME280;54636;51.684;5.142;2023-08-30T10:10:19;100510.44;;;17.51;100.00
67840;BME280;54636;51.684;5.142;2023-08-30T10:12:46;100511.06;;;17.86;100.00
67840;BME280;54636;51.684;5.142;2023-08-30T10:15:11;100508.38;;;18.22;100.00
67840;BME280;54636;51.684;5.142;2023-08-30T10:17:41;100512.50;;;18.72;100.00
67840;BME280;54636;51.684;5.142;2023-08-30T10:20:09;100525.59;;;19.02;100.00
67840;BME280;54636;51.684;5.142;2023-08-30T10:22:38;100515.28;;;18.87;100.00
67840;BME280;54636;51.684;5.142;2023-08-30T10:25:17;100534.13;;;18.68;98.60
67840;BME280;54636;51.684;5.142;2023-08-30T10:27:46;100512.38;;;18.49;100.00
67840;BME280;54636;51.684;5.142;2023-08-30T10:30:14;100520.78;;;18.87;100.00
67840;BME280;54636;51.684;5.142;2023-08-30T10:32:42;100527.31;;;19.20;100.00
67840;BME280;54636;51.684;5.142;2023-08-30T10:35:11;100536.19;;;19.64;100.00
67840;BME280;54636;51.684;5.142;2023-08-30T10:37:40;100525.72;;;19.70;94.24
67840;BME280;54636;51.684;5.142;2023-08-30T10:40:06;100534.91;;;19.65;94.65
67840;BME280;54636;51.684;5.142;2023-08-30T10:42:32;100502.50;;;19.13;94.61
67840;BME280;54636;51.684;5.142;2023-08-30T10:44:59;100543.25;;;19.06;96.12
67840;BME280;54636;51.684;5.142;2023-08-30T10:47:29;100539.34;;;18.94;95.31
67840;BME280;54636;51.684;5.142;2023-08-30T10:49:55;100537.50;;;18.89;100.00
67840;BME280;54636;51.684;5.142;2023-08-30T10:52:21;100539.66;;;18.75;98.67
67840;BME280;54636;51.684;5.142;2023-08-30T10:54:47;100531.13;;;18.58;99.12
67840;BME280;54636;51.684;5.142;2023-08-30T10:57:18;100538.94;;;18.75;98.22
67840;BME280;54636;51.684;5.142;2023-08-30T11:00:06;100547.38;;;18.77;98.01
67840;BME280;54636;51.684;5.142;2023-08-30T11:02:33;100532.56;;;18.52;96.08
67840;BME280;54636;51.684;5.142;2023-08-30T11:04:59;100516.50;;;18.35;96.34
67840;BME280;54636;51.684;5.142;2023-08-30T11:07:25;100518.91;;;18.38;95.72
67840;BME280;54636;51.684;5.142;2023-08-30T11:09:54;100527.69;;;18.65;97.26
67840;BME280;54636;51.684;5.142;2023-08-30T11:12:20;100521.91;;;18.84;90.63
67840;BME280;54636;51.684;5.142;2023-08-30T11:14:49;100559.63;;;19.20;90.68
67840;BME280;54636;51.684;5.142;2023-08-30T11:17:18;100549.72;;;19.24;87.95
67840;BME280;54636;51.684;5.142;2023-08-30T11:19:43;100550.63;;;19.27;86.56
67840;BME280;54636;51.684;5.142;2023-08-30T11:22:10;100547.84;;;19.12;88.10
67840;BME280;54636;51.684;5.142;2023-08-30T11:24:35;100522.84;;;18.94;87.53
67840;BME280;54636;51.684;5.142;2023-08-30T11:27:01;100549.44;;;18.99;88.53
67840;BME280;54636;51.684;5.142;2023-08-30T11:29:27;100549.44;;;18.99;88.56
67840;BME280;54636;51.684;5.142;2023-08-30T11:31:52;100529.44;;;18.91;83.88
67840;BME280;54636;51.684;5.142;2023-08-30T11:34:21;100558.91;;;19.27;87.20
67840;BME280;54636;51.684;5.142;2023-08-30T11:36:48;100555.63;;;19.36;83.48
67840;BME280;54636;51.684;5.142;2023-08-30T11:39:16;100535.56;;;19.13;84.70
67840;BME280;54636;51.684;5.142;2023-08-30T11:41:41;100557.75;;;19.07;80.20
67840;BME280;54636;51.684;5.142;2023-08-30T11:44:07;100543.66;;;18.67;78.46
67840;BME280;54636;51.684;5.142;2023-08-30T11:46:33;100551.03;;;18.43;80.86
67840;BME280;54636;51.684;5.142;2023-08-30T11:48:58;100548.09;;;18.13;85.34
67840;BME280;54636;51.684;5.142;2023-08-30T11:51:24;100547.22;;;18.18;83.06
67840;BME280;54636;51.684;5.142;2023-08-30T11:53:50;100550.91;;;18.57;83.87
67840;BME280;54636;51.684;5.142;2023-08-30T11:56:17;100572.53;;;18.89;82.05
67840;BME280;54636;51.684;5.142;2023-08-30T11:58:44;100576.28;;;19.06;79.10
67840;BME280;54636;51.684;5.142;2023-08-30T12:01:10;100559.56;;;19.04;81.91
67840;BME280;54636;51.684;5.142;2023-08-30T12:03:36;100562.06;;;19.54;83.44
67840;BME280;54636;51.684;5.142;2023-08-30T12:06:01;100569.28;;;19.95;77.65
67840;BME280;54636;51.684;5.142;2023-08-30T12:08:31;100547.22;;;19.80;75.39
67840;BME280;54636;51.684;5.142;2023-08-30T12:10:57;100559.16;;;19.67;74.86
67840;BME280;54636;51.684;5.142;2023-08-30T12:13:30;100563.19;;;19.73;77.81
67840;BME280;54636;51.684;5.142;2023-08-30T12:15:57;100565.59;;;20.08;75.80
67840;BME280;54636;51.684;5.142;2023-08-30T12:18:27;100556.91;;;20.26;76.96
67840;BME280;54636;51.684;5.142;2023-08-30T12:20:54;100568.66;;;20.50;75.01
67840;BME280;54636;51.684;5.142;2023-08-30T12:23:24;100556.53;;;20.37;71.24
67840;BME280;54636;51.684;5.142;2023-08-30T12:28:26;100561.38;;;19.84;64.75
67840;BME280;54636;51.684;5.142;2023-08-30T12:30:52;100565.75;;;19.64;69.55
67840;BME280;54636;51.684;5.142;2023-08-30T12:33:19;100581.53;;;19.48;69.88
67840;BME280;54636;51.684;5.142;2023-08-30T12:35:44;100581.31;;;19.38;69.21
67840;BME280;54636;51.684;5.142;2023-08-30T12:38:10;100580.63;;;19.53;71.04
67840;BME280;54636;51.684;5.142;2023-08-30T12:40:37;100565.59;;;19.69;70.18
67840;BME280;54636;51.684;5.142;2023-08-30T12:43:03;100585.97;;;20.20;71.10
67840;BME280;54636;51.684;5.142;2023-08-30T12:45:29;100585.22;;;20.27;64.43
67840;BME280;54636;51.684;5.142;2023-08-30T12:47:54;100589.81;;;20.17;63.14